createdAt,value
2023-03-08T00:00:43.863Z,2.40
2023-03-08T00:03:16.671Z,2.47
2023-03-08T00:05:45.768Z,3.30
2023-03-08T00:08:14.479Z,2.43
2023-03-08T00:10:48.476Z,2.47
2023-03-08T00:13:18.698Z,2.57
2023-03-08T00:15:48.032Z,3.20
2023-03-08T00:18:20.141Z,2.50
2023-03-08T00:20:48.039Z,2.23
2023-03-08T00:23:17.208Z,2.37
2023-03-08T00:25:45.737Z,2.67
2023-03-08T00:28:14.162Z,2.97
2023-03-08T00:30:44.552Z,2.17
2023-03-08T00:33:12.859Z,3.33
2023-03-08T00:35:44.666Z,2.87
2023-03-08T00:38:12.481Z,2.40
2023-03-08T00:40:41.590Z,2.33
2023-03-08T00:43:09.509Z,2.40
2023-03-08T00:45:38.030Z,2.50
2023-03-08T00:48:09.041Z,2.80
2023-03-08T00:50:39.819Z,3.30
2023-03-08T00:53:10.618Z,2.63
2023-03-08T00:55:40.561Z,4.20
2023-03-08T00:58:09.640Z,2.87
2023-03-08T01:00:49.022Z,2.40
2023-03-08T01:03:18.076Z,2.90
2023-03-08T01:05:50.317Z,2.30
2023-03-08T01:08:22.112Z,2.50
2023-03-08T01:10:51.361Z,3.73
2023-03-08T01:13:20.821Z,2.67
2023-03-08T01:15:49.648Z,2.80
2023-03-08T01:18:20.147Z,3.63
2023-03-08T01:20:56.678Z,2.97
2023-03-08T01:23:27.001Z,3.50
2023-03-08T01:26:03.244Z,3.27
2023-03-08T01:28:32.328Z,3.17
2023-03-08T01:31:03.257Z,3.50
2023-03-08T01:33:31.666Z,3.70
2023-03-08T01:36:00.943Z,3.60
2023-03-08T01:38:36.307Z,3.57
2023-03-08T01:41:19.177Z,2.63
2023-03-08T01:43:47.534Z,3.60
2023-03-08T01:46:26.474Z,3.20
2023-03-08T01:49:04.945Z,3.20
2023-03-08T01:51:39.773Z,4.77
2023-03-08T01:54:15.610Z,3.70
2023-03-08T01:56:47.276Z,7.40
2023-03-08T01:59:15.822Z,3.73
2023-03-08T02:01:44.237Z,3.90
2023-03-08T02:04:13.242Z,3.37
2023-03-08T02:06:41.948Z,3.40
2023-03-08T02:09:11.236Z,3.93
2023-03-08T02:11:42.101Z,4.90
2023-03-08T02:14:11.421Z,4.33
2023-03-08T02:16:49.246Z,4.70
2023-03-08T02:19:24.370Z,6.00
2023-03-08T02:21:53.286Z,5.37
2023-03-08T02:24:29.545Z,5.20
2023-03-08T02:27:03.141Z,6.97
2023-03-08T02:29:32.478Z,5.77
2023-03-08T02:32:01.884Z,6.70
2023-03-08T02:34:31.864Z,6.10
2023-03-08T02:37:00.715Z,6.73
2023-03-08T02:39:33.439Z,5.93
2023-03-08T02:42:01.627Z,8.47
2023-03-08T02:44:30.840Z,5.57
2023-03-08T02:46:59.672Z,7.23
2023-03-08T02:49:28.075Z,6.17
2023-03-08T02:51:57.595Z,7.00
2023-03-08T02:54:25.517Z,5.77
2023-03-08T02:56:56.977Z,10.60
2023-03-08T02:59:26.805Z,7.83
2023-03-08T03:01:55.092Z,6.03
2023-03-08T03:04:25.539Z,7.17
2023-03-08T03:06:58.011Z,9.00
2023-03-08T03:09:29.508Z,6.30
2023-03-08T03:12:02.124Z,6.80
2023-03-08T03:14:31.260Z,7.70
2023-03-08T03:17:01.970Z,7.77
2023-03-08T03:19:31.762Z,7.47
2023-03-08T03:21:59.583Z,8.60
2023-03-08T03:24:28.079Z,7.23
2023-03-08T03:26:59.723Z,9.13
2023-03-08T03:29:33.100Z,8.57
2023-03-08T03:32:08.701Z,7.60
2023-03-08T03:34:37.653Z,8.77
2023-03-08T03:37:06.159Z,8.87
2023-03-08T03:39:39.016Z,8.37
2023-03-08T03:42:11.651Z,8.77
2023-03-08T03:44:42.406Z,9.40
2023-03-08T03:47:12.218Z,10.10
2023-03-08T03:49:43.713Z,9.67
2023-03-08T03:52:20.828Z,8.33
2023-03-08T03:54:54.640Z,11.30
2023-03-08T03:57:35.161Z,8.40
2023-03-08T04:00:06.193Z,6.73
2023-03-08T04:02:38.342Z,10.27
2023-03-08T04:05:10.064Z,7.53
2023-03-08T04:07:39.180Z,8.67
2023-03-08T04:10:08.167Z,8.40
2023-03-08T04:12:36.163Z,9.23
2023-03-08T04:15:11.672Z,8.17
2023-03-08T04:17:39.959Z,9.70
2023-03-08T04:20:10.444Z,8.43
2023-03-08T04:22:44.389Z,10.93
2023-03-08T04:25:12.746Z,10.23
2023-03-08T04:27:45.641Z,10.67
2023-03-08T04:30:16.779Z,11.93
2023-03-08T04:32:48.774Z,13.50
2023-03-08T04:35:30.374Z,11.03
2023-03-08T04:37:59.061Z,11.70
2023-03-08T04:40:27.330Z,11.57
2023-03-08T04:42:55.544Z,11.30
2023-03-08T04:45:26.345Z,13.47
2023-03-08T04:47:55.966Z,13.97
2023-03-08T04:50:25.405Z,14.37
2023-03-08T04:52:53.260Z,12.83
2023-03-08T04:55:28.630Z,12.40
2023-03-08T04:57:57.482Z,11.87
2023-03-08T05:00:30.240Z,13.73
2023-03-08T05:02:59.598Z,14.17
2023-03-08T05:05:27.554Z,13.83
2023-03-08T05:07:55.538Z,15.47
2023-03-08T05:10:23.720Z,14.87
2023-03-08T05:12:51.628Z,17.27
2023-03-08T05:15:22.157Z,15.90
2023-03-08T05:17:54.017Z,16.80
2023-03-08T05:20:24.511Z,13.53
2023-03-08T05:22:59.288Z,15.10
2023-03-08T05:25:31.755Z,15.83
2023-03-08T05:28:01.158Z,19.90
2023-03-08T05:30:30.242Z,17.20
2023-03-08T05:33:07.248Z,17.27
2023-03-08T05:35:37.976Z,14.27
2023-03-08T05:38:09.458Z,14.73
2023-03-08T05:40:39.291Z,13.03
2023-03-08T05:43:08.936Z,8.70
2023-03-08T05:45:37.109Z,13.87
2023-03-08T05:48:12.798Z,17.70
2023-03-08T05:50:40.863Z,13.23
2023-03-08T05:53:09.979Z,16.20
2023-03-08T05:56:13.372Z,13.83
2023-03-08T05:58:45.624Z,12.37
2023-03-08T06:01:19.424Z,9.90
2023-03-08T06:03:51.484Z,15.50
2023-03-08T06:06:21.216Z,13.60
2023-03-08T06:08:56.224Z,16.97
2023-03-08T06:11:34.397Z,16.40
2023-03-08T06:14:03.747Z,15.90
2023-03-08T06:16:34.410Z,18.20
2023-03-08T06:19:07.282Z,18.23
2023-03-08T06:21:37.313Z,12.63
2023-03-08T06:24:06.519Z,16.37
2023-03-08T06:26:35.913Z,15.30
2023-03-08T06:29:13.443Z,18.87
2023-03-08T06:31:43.947Z,23.13
2023-03-08T06:34:16.706Z,17.63
2023-03-08T06:36:46.788Z,20.73
2023-03-08T06:39:16.348Z,17.70
2023-03-08T06:41:47.316Z,17.53
2023-03-08T06:44:16.817Z,18.80
2023-03-08T06:46:45.151Z,18.30
2023-03-08T06:49:20.987Z,18.27
2023-03-08T06:51:49.342Z,24.10
2023-03-08T06:54:24.084Z,18.13
2023-03-08T06:56:54.817Z,17.70
2023-03-08T06:59:28.445Z,20.20
2023-03-08T07:01:57.581Z,15.97
2023-03-08T07:04:28.435Z,20.33
2023-03-08T07:06:57.550Z,17.07
2023-03-08T07:09:27.999Z,21.53
2023-03-08T07:11:59.210Z,18.43
2023-03-08T07:14:27.577Z,18.30
2023-03-08T07:16:55.676Z,20.57
2023-03-08T07:19:28.197Z,22.53
2023-03-08T07:21:59.405Z,22.37
2023-03-08T07:24:29.026Z,28.00
2023-03-08T07:26:56.807Z,19.23
2023-03-08T07:29:27.870Z,17.67
2023-03-08T07:31:59.942Z,15.67
2023-03-08T07:34:30.451Z,17.97
2023-03-08T07:37:01.112Z,20.37
2023-03-08T07:39:31.711Z,24.77
2023-03-08T07:42:01.416Z,23.87
2023-03-08T07:44:29.687Z,25.03
2023-03-08T07:46:58.293Z,19.00
2023-03-08T07:49:27.448Z,17.17
2023-03-08T07:52:01.093Z,17.47
2023-03-08T07:54:30.091Z,19.10
2023-03-08T07:57:01.522Z,19.43
2023-03-08T07:59:29.959Z,19.50
2023-03-08T08:02:01.474Z,17.33
2023-03-08T08:04:31.414Z,18.47
2023-03-08T08:07:05.153Z,19.73
2023-03-08T08:09:34.211Z,21.70
2023-03-08T08:12:02.491Z,20.23
2023-03-08T08:14:36.672Z,20.27
2023-03-08T08:17:05.629Z,22.90
2023-03-08T08:19:35.712Z,21.27
2023-03-08T08:22:08.568Z,19.93
2023-03-08T08:24:37.469Z,21.57
2023-03-08T08:27:09.189Z,23.00
2023-03-08T08:29:39.433Z,23.20
2023-03-08T08:32:11.130Z,25.27
2023-03-08T08:34:39.966Z,21.63
2023-03-08T08:37:13.230Z,24.00
2023-03-08T08:39:51.447Z,22.20
2023-03-08T08:42:19.536Z,21.87
2023-03-08T08:44:51.324Z,23.17
2023-03-08T08:47:21.290Z,22.53
2023-03-08T08:49:55.952Z,22.13
2023-03-08T08:52:29.900Z,20.23
2023-03-08T08:55:00.657Z,22.57
2023-03-08T08:57:34.248Z,19.57
2023-03-08T09:00:12.264Z,18.43
2023-03-08T09:02:43.928Z,22.37
2023-03-08T09:05:12.268Z,20.93
2023-03-08T09:07:43.732Z,21.20
2023-03-08T09:10:14.309Z,20.20
2023-03-08T09:12:50.758Z,20.23
2023-03-08T09:15:21.896Z,18.80
2023-03-08T09:17:51.732Z,18.27
2023-03-08T09:20:23.805Z,18.83
2023-03-08T09:22:55.906Z,19.00
2023-03-08T09:25:27.220Z,19.70
2023-03-08T09:27:55.428Z,20.07
2023-03-08T09:30:24.816Z,18.73
2023-03-08T09:32:53.352Z,18.17
2023-03-08T09:35:21.950Z,17.00
2023-03-08T09:37:51.191Z,17.80
2023-03-08T09:40:33.723Z,17.53
2023-03-08T09:43:08.722Z,16.20
2023-03-08T09:45:38.886Z,16.80
2023-03-08T09:48:19.177Z,17.40
2023-03-08T09:50:52.842Z,19.90
2023-03-08T09:53:30.119Z,17.40
2023-03-08T09:56:07.194Z,17.57
2023-03-08T09:58:43.834Z,18.60
2023-03-08T10:01:25.864Z,18.50
2023-03-08T10:04:38.499Z,19.23
2023-03-08T10:07:35.133Z,18.53
2023-03-08T10:10:31.400Z,20.43
2023-03-08T10:13:32.153Z,20.93
2023-03-08T10:16:14.503Z,19.47
2023-03-08T10:18:48.102Z,18.40
2023-03-08T10:21:24.990Z,20.10
2023-03-08T10:24:08.056Z,21.03
2023-03-08T10:26:37.800Z,19.07
2023-03-08T10:31:52.329Z,20.80
2023-03-08T10:34:32.619Z,21.20
2023-03-08T10:37:08.252Z,21.83
2023-03-08T10:39:37.212Z,21.83
2023-03-08T10:42:16.958Z,20.67
2023-03-08T10:44:53.283Z,23.83
2023-03-08T10:47:26.909Z,20.53
2023-03-08T10:50:18.547Z,20.80
2023-03-08T10:52:55.831Z,19.17
2023-03-08T10:55:28.162Z,20.40
2023-03-08T10:57:59.632Z,20.37
2023-03-08T11:00:35.704Z,21.97
2023-03-08T11:03:16.089Z,23.53
2023-03-08T11:05:54.105Z,26.50
2023-03-08T11:08:25.391Z,25.13
2023-03-08T11:11:14.305Z,23.17
2023-03-08T11:13:49.091Z,23.27
2023-03-08T11:16:31.415Z,25.03
2023-03-08T11:19:08.238Z,22.07
2023-03-08T11:21:55.926Z,22.80
2023-03-08T11:24:40.195Z,23.50
2023-03-08T11:27:24.592Z,19.57
2023-03-08T11:30:07.898Z,18.37
2023-03-08T11:33:00.842Z,18.67
2023-03-08T11:35:48.096Z,20.03
2023-03-08T11:38:19.809Z,20.60
2023-03-08T11:40:57.825Z,17.97
2023-03-08T11:43:46.624Z,16.10
2023-03-08T11:46:29.551Z,14.27
2023-03-08T11:49:18.900Z,14.93
2023-03-08T11:52:03.969Z,16.07
2023-03-08T11:54:45.078Z,17.10
2023-03-08T11:57:16.165Z,16.80
2023-03-08T11:59:51.433Z,16.70
2023-03-08T12:02:26.495Z,14.53
2023-03-08T12:05:03.100Z,15.00
2023-03-08T12:07:41.436Z,14.80
2023-03-08T12:10:20.547Z,16.13
2023-03-08T12:12:57.615Z,15.70
2023-03-08T12:15:36.424Z,14.70
2023-03-08T12:18:12.335Z,15.67
2023-03-08T12:20:43.781Z,20.00
2023-03-08T12:23:30.212Z,19.83
2023-03-08T12:26:09.972Z,16.50
2023-03-08T12:28:49.538Z,17.63
2023-03-08T12:31:28.719Z,19.60
2023-03-08T12:34:15.033Z,20.83
2023-03-08T12:36:49.102Z,15.10
2023-03-08T12:39:37.520Z,15.13
2023-03-08T12:42:17.495Z,15.97
2023-03-08T12:44:48.163Z,15.07
2023-03-08T12:47:24.411Z,14.10
2023-03-08T12:49:58.213Z,13.27
2023-03-08T12:52:33.364Z,15.07
2023-03-08T12:55:14.052Z,14.57
2023-03-08T12:57:50.052Z,15.47
2023-03-08T13:00:30.597Z,16.10
2023-03-08T13:03:09.195Z,15.80
2023-03-08T13:05:42.010Z,16.57
2023-03-08T13:08:30.018Z,16.07
2023-03-08T13:11:17.372Z,13.20
2023-03-08T13:13:52.483Z,17.70
2023-03-08T13:16:42.772Z,11.73
2023-03-08T13:19:20.721Z,12.20
2023-03-08T13:21:53.342Z,12.80
2023-03-08T13:24:40.179Z,12.73
2023-03-08T13:27:33.918Z,13.77
2023-03-08T13:30:18.217Z,18.17
2023-03-08T13:32:49.339Z,15.83
2023-03-08T13:35:20.188Z,13.80
2023-03-08T13:37:56.772Z,16.30
2023-03-08T13:40:25.591Z,13.83
2023-03-08T13:42:56.802Z,12.90
2023-03-08T13:45:27.539Z,12.10
2023-03-08T13:48:02.499Z,11.00
2023-03-08T13:50:33.047Z,14.30
2023-03-08T13:53:07.076Z,13.77
2023-03-08T13:55:41.520Z,16.83
2023-03-08T13:58:29.332Z,15.53
2023-03-08T14:01:04.415Z,14.13
2023-03-08T14:03:33.872Z,14.90
2023-03-08T14:06:05.482Z,11.87
2023-03-08T14:08:41.386Z,12.97
2023-03-08T14:11:17.732Z,15.40
2023-03-08T14:13:53.064Z,14.67
2023-03-08T14:16:28.413Z,15.77
2023-03-08T14:18:56.643Z,16.00
2023-03-08T14:21:27.627Z,12.50
2023-03-08T14:23:57.809Z,11.17
2023-03-08T14:26:32.028Z,13.27
2023-03-08T14:32:06.703Z,13.63
2023-03-08T14:34:40.853Z,15.20
2023-03-08T14:37:19.660Z,16.57
2023-03-08T14:39:50.669Z,16.03
2023-03-08T14:42:23.851Z,14.00
2023-03-08T14:44:54.421Z,15.60
2023-03-08T14:47:32.109Z,12.77
2023-03-08T14:50:04.146Z,13.30
2023-03-08T14:52:35.769Z,17.83
2023-03-08T14:55:06.237Z,18.40
2023-03-08T14:57:35.728Z,18.33
2023-03-08T15:00:16.329Z,19.70
2023-03-08T15:02:47.538Z,17.97
2023-03-08T15:05:28.114Z,20.80
2023-03-08T15:08:05.936Z,20.30
2023-03-08T15:10:37.402Z,21.60
2023-03-08T15:13:09.208Z,24.90
2023-03-08T15:15:37.443Z,20.10
2023-03-08T15:18:08.214Z,20.17
2023-03-08T15:20:46.823Z,19.57
2023-03-08T15:23:19.514Z,19.47
2023-03-08T15:25:50.232Z,23.40
2023-03-08T15:28:20.176Z,22.00
2023-03-08T15:30:52.719Z,26.20
2023-03-08T15:33:23.925Z,25.80
2023-03-08T15:35:54.077Z,26.70
2023-03-08T15:38:24.346Z,23.93
2023-03-08T15:40:52.852Z,24.73
2023-03-08T15:43:21.198Z,26.23
2023-03-08T15:45:53.010Z,26.60
2023-03-08T15:48:24.713Z,25.20
2023-03-08T15:50:53.604Z,22.40
2023-03-08T15:53:34.857Z,21.93
2023-03-08T15:56:05.468Z,21.70
2023-03-08T15:58:35.472Z,25.57
2023-03-08T16:01:04.086Z,22.80
2023-03-08T16:03:37.642Z,23.93
2023-03-08T16:06:15.423Z,24.00
2023-03-08T16:08:51.742Z,21.93
2023-03-08T16:11:22.520Z,21.33
2023-03-08T16:13:52.054Z,23.27
2023-03-08T16:16:32.297Z,22.90
2023-03-08T16:19:11.015Z,22.23
2023-03-08T16:21:41.585Z,22.37
2023-03-08T16:24:11.477Z,24.53
2023-03-08T16:26:41.651Z,22.80
2023-03-08T16:29:12.373Z,23.03
2023-03-08T16:31:40.270Z,23.63
2023-03-08T16:34:12.975Z,20.37
2023-03-08T16:36:41.654Z,23.73
2023-03-08T16:39:10.553Z,24.60
2023-03-08T16:41:40.537Z,32.40
2023-03-08T16:44:23.220Z,32.43
2023-03-08T16:46:53.826Z,33.70
2023-03-08T16:49:28.618Z,30.20
2023-03-08T16:51:57.258Z,34.00
2023-03-08T16:54:30.310Z,31.47
2023-03-08T16:57:04.834Z,33.33
2023-03-08T16:59:42.366Z,33.20
2023-03-08T17:02:16.015Z,37.40
2023-03-08T17:04:46.946Z,39.30
2023-03-08T17:07:18.319Z,38.40
2023-03-08T17:09:47.221Z,34.13
2023-03-08T17:12:16.107Z,40.90
2023-03-08T17:14:45.734Z,47.73
2023-03-08T17:17:17.372Z,39.77
2023-03-08T17:19:48.944Z,38.37
2023-03-08T17:22:18.012Z,37.57
2023-03-08T17:24:46.066Z,39.87
2023-03-08T17:27:17.059Z,34.20
2023-03-08T17:29:46.163Z,39.17
2023-03-08T17:32:16.623Z,37.43
2023-03-08T17:37:43.052Z,35.57
2023-03-08T17:40:14.655Z,43.10
2023-03-08T17:42:43.441Z,38.83
2023-03-08T17:45:33.852Z,33.03
2023-03-08T17:48:19.006Z,36.93
2023-03-08T17:50:50.651Z,28.70
2023-03-08T17:53:24.468Z,27.40
2023-03-08T17:55:53.303Z,31.03
2023-03-08T17:58:21.464Z,28.73
2023-03-08T18:00:52.169Z,26.10
2023-03-08T18:03:21.789Z,25.93
2023-03-08T18:05:53.539Z,27.43
2023-03-08T18:08:31.010Z,27.87
2023-03-08T18:10:59.586Z,27.47
2023-03-08T18:13:31.173Z,26.00
2023-03-08T18:16:14.378Z,27.53
2023-03-08T18:18:58.732Z,29.83
2023-03-08T18:21:39.982Z,28.67
2023-03-08T18:27:31.263Z,36.40
2023-03-08T18:30:07.900Z,33.97
2023-03-08T18:39:10.027Z,28.43
2023-03-08T18:42:33.764Z,29.87
2023-03-08T18:49:14.469Z,26.33
2023-03-08T19:00:55.078Z,29.73
2023-03-08T19:03:38.336Z,39.43
2023-03-08T19:12:37.580Z,37.17
2023-03-08T19:15:26.616Z,39.40
2023-03-08T19:29:44.326Z,38.77
2023-03-08T19:39:06.477Z,39.97
2023-03-08T20:03:00.296Z,39.87
2023-03-08T21:18:08.882Z,45.10
2023-03-08T22:16:17.947Z,39.50
2023-03-08T22:18:58.597Z,40.53
2023-03-08T22:21:32.746Z,44.87
2023-03-08T22:24:06.880Z,40.93
2023-03-08T22:26:49.202Z,48.27
2023-03-08T22:29:24.002Z,46.20
2023-03-08T22:32:17.085Z,45.73
2023-03-08T22:35:24.254Z,45.53
2023-03-08T22:40:47.840Z,46.00
2023-03-08T22:54:54.661Z,45.57
2023-03-08T23:06:51.361Z,45.13
2023-03-08T23:09:44.230Z,42.00
2023-03-08T23:13:06.438Z,44.53
2023-03-08T23:19:12.277Z,45.63
2023-03-08T23:33:26.063Z,45.83
2023-03-08T23:45:37.085Z,37.13
2023-03-08T23:48:11.005Z,40.97
2023-03-08T23:50:40.193Z,45.40
2023-03-08T23:53:14.590Z,46.10
2023-03-08T23:55:45.371Z,47.37
2023-03-08T23:58:19.083Z,92.93
